sensor_id;sensor_type;location;lat;lon;timestamp;P1;durP1;ratioP1;P2;durP2;ratioP2
17482;SDS011;8858;52.308;20.994;2022-09-29T00:01:19;15.13;;;13.60;;
17482;SDS011;8858;52.308;20.994;2022-09-29T00:03:48;14.50;;;13.00;;
17482;SDS011;8858;52.308;20.994;2022-09-29T00:14:51;13.43;;;10.87;;
17482;SDS011;8858;52.308;20.994;2022-09-29T00:17:44;12.37;;;10.30;;
17482;SDS011;8858;52.308;20.994;2022-09-29T00:20:33;11.40;;;10.23;;
17482;SDS011;8858;52.308;20.994;2022-09-29T00:23:09;10.47;;;9.37;;
17482;SDS011;8858;52.308;20.994;2022-09-29T00:25:39;11.07;;;9.33;;
17482;SDS011;8858;52.308;20.994;2022-09-29T00:28:08;10.40;;;9.30;;
17482;SDS011;8858;52.308;20.994;2022-09-29T00:30:44;11.77;;;9.00;;
17482;SDS011;8858;52.308;20.994;2022-09-29T00:33:33;11.30;;;8.93;;
17482;SDS011;8858;52.308;20.994;2022-09-29T00:36:09;10.50;;;9.10;;
17482;SDS011;8858;52.308;20.994;2022-09-29T00:39:03;10.40;;;9.13;;
17482;SDS011;8858;52.308;20.994;2022-09-29T00:41:37;9.73;;;8.67;;
17482;SDS011;8858;52.308;20.994;2022-09-29T00:47:17;9.27;;;8.37;;
17482;SDS011;8858;52.308;20.994;2022-09-29T00:49:53;10.30;;;9.00;;
17482;SDS011;8858;52.308;20.994;2022-09-29T00:52:27;9.80;;;8.80;;
17482;SDS011;8858;52.308;20.994;2022-09-29T00:55:04;11.10;;;8.97;;
17482;SDS011;8858;52.308;20.994;2022-09-29T00:57:40;11.53;;;9.83;;
17482;SDS011;8858;52.308;20.994;2022-09-29T01:00:16;9.67;;;8.77;;
17482;SDS011;8858;52.308;20.994;2022-09-29T01:02:47;11.03;;;9.17;;
17482;SDS011;8858;52.308;20.994;2022-09-29T01:05:22;10.80;;;9.57;;
17482;SDS011;8858;52.308;20.994;2022-09-29T01:08:00;11.50;;;10.30;;
17482;SDS011;8858;52.308;20.994;2022-09-29T01:10:40;12.20;;;10.13;;
17482;SDS011;8858;52.308;20.994;2022-09-29T01:14:12;11.00;;;9.90;;
17482;SDS011;8858;52.308;20.994;2022-09-29T01:17:36;10.97;;;9.90;;
17482;SDS011;8858;52.308;20.994;2022-09-29T01:21:21;12.10;;;10.80;;
17482;SDS011;8858;52.308;20.994;2022-09-29T01:25:16;13.13;;;11.13;;
17482;SDS011;8858;52.308;20.994;2022-09-29T01:28:51;12.33;;;10.60;;
17482;SDS011;8858;52.308;20.994;2022-09-29T01:33:05;13.57;;;12.00;;
17482;SDS011;8858;52.308;20.994;2022-09-29T01:36:16;11.57;;;10.37;;
17482;SDS011;8858;52.308;20.994;2022-09-29T01:39:41;12.43;;;11.03;;
17482;SDS011;8858;52.308;20.994;2022-09-29T01:43:30;12.73;;;11.40;;
17482;SDS011;8858;52.308;20.994;2022-09-29T01:49:55;11.50;;;10.30;;
17482;SDS011;8858;52.308;20.994;2022-09-29T01:52:53;12.17;;;10.17;;
17482;SDS011;8858;52.308;20.994;2022-09-29T01:55:29;13.50;;;10.23;;
17482;SDS011;8858;52.308;20.994;2022-09-29T02:02:38;12.53;;;10.93;;
17482;SDS011;8858;52.308;20.994;2022-09-29T02:05:12;11.30;;;10.20;;
17482;SDS011;8858;52.308;20.994;2022-09-29T02:07:49;11.10;;;10.00;;
17482;SDS011;8858;52.308;20.994;2022-09-29T02:10:25;11.67;;;10.07;;
17482;SDS011;8858;52.308;20.994;2022-09-29T02:12:58;12.57;;;9.73;;
17482;SDS011;8858;52.308;20.994;2022-09-29T02:15:33;10.90;;;9.80;;
17482;SDS011;8858;52.308;20.994;2022-09-29T02:18:05;11.10;;;9.57;;
17482;SDS011;8858;52.308;20.994;2022-09-29T02:20:40;11.07;;;9.97;;
17482;SDS011;8858;52.308;20.994;2022-09-29T02:23:13;9.87;;;8.87;;
17482;SDS011;8858;52.308;20.994;2022-09-29T02:25:41;10.70;;;9.57;;
17482;SDS011;8858;52.308;20.994;2022-09-29T02:28:17;10.90;;;9.80;;
17482;SDS011;8858;52.308;20.994;2022-09-29T02:30:48;10.47;;;9.47;;
17482;SDS011;8858;52.308;20.994;2022-09-29T02:33:42;12.43;;;10.10;;
17482;SDS011;8858;52.308;20.994;2022-09-29T02:36:14;11.10;;;9.33;;
17482;SDS011;8858;52.308;20.994;2022-09-29T02:38:52;9.77;;;8.73;;
17482;SDS011;8858;52.308;20.994;2022-09-29T02:41:27;9.93;;;8.93;;
17482;SDS011;8858;52.308;20.994;2022-09-29T02:44:14;10.57;;;9.27;;
17482;SDS011;8858;52.308;20.994;2022-09-29T02:46:56;10.17;;;9.13;;
17482;SDS011;8858;52.308;20.994;2022-09-29T02:49:48;11.23;;;10.13;;
17482;SDS011;8858;52.308;20.994;2022-09-29T02:52:31;11.10;;;9.73;;
17482;SDS011;8858;52.308;20.994;2022-09-29T02:58:09;11.53;;;9.83;;
17482;SDS011;8858;52.308;20.994;2022-09-29T03:00:46;10.87;;;9.77;;
17482;SDS011;8858;52.308;20.994;2022-09-29T03:03:14;10.77;;;9.67;;
17482;SDS011;8858;52.308;20.994;2022-09-29T03:05:44;11.20;;;10.10;;
17482;SDS011;8858;52.308;20.994;2022-09-29T03:08:27;11.70;;;10.10;;
17482;SDS011;8858;52.308;20.994;2022-09-29T03:11:00;13.33;;;10.23;;
17482;SDS011;8858;52.308;20.994;2022-09-29T03:13:31;12.30;;;10.70;;
17482;SDS011;8858;52.308;20.994;2022-09-29T03:16:01;11.13;;;10.13;;
17482;SDS011;8858;52.308;20.994;2022-09-29T03:18:29;12.10;;;10.77;;
17482;SDS011;8858;52.308;20.994;2022-09-29T03:21:05;11.23;;;10.10;;
17482;SDS011;8858;52.308;20.994;2022-09-29T03:23:35;11.40;;;10.10;;
17482;SDS011;8858;52.308;20.994;2022-09-29T03:26:03;11.40;;;10.33;;
17482;SDS011;8858;52.308;20.994;2022-09-29T03:28:32;10.87;;;9.77;;
17482;SDS011;8858;52.308;20.994;2022-09-29T03:31:04;10.87;;;9.77;;
17482;SDS011;8858;52.308;20.994;2022-09-29T03:33:35;11.23;;;10.13;;
17482;SDS011;8858;52.308;20.994;2022-09-29T03:36:05;10.73;;;9.80;;
17482;SDS011;8858;52.308;20.994;2022-09-29T03:38:36;11.10;;;10.10;;
17482;SDS011;8858;52.308;20.994;2022-09-29T03:41:06;10.83;;;9.90;;
17482;SDS011;8858;52.308;20.994;2022-09-29T03:43:34;10.63;;;9.73;;
17482;SDS011;8858;52.308;20.994;2022-09-29T03:46:03;11.57;;;10.40;;
17482;SDS011;8858;52.308;20.994;2022-09-29T03:48:32;11.97;;;10.77;;
17482;SDS011;8858;52.308;20.994;2022-09-29T03:51:01;10.67;;;9.67;;
17482;SDS011;8858;52.308;20.994;2022-09-29T03:53:32;10.20;;;9.30;;
17482;SDS011;8858;52.308;20.994;2022-09-29T03:56:02;11.53;;;9.93;;
17482;SDS011;8858;52.308;20.994;2022-09-29T03:58:30;11.67;;;10.47;;
17482;SDS011;8858;52.308;20.994;2022-09-29T04:00:59;11.53;;;10.37;;
17482;SDS011;8858;52.308;20.994;2022-09-29T04:03:28;10.37;;;9.47;;
17482;SDS011;8858;52.308;20.994;2022-09-29T04:05:59;10.67;;;9.67;;
17482;SDS011;8858;52.308;20.994;2022-09-29T04:08:27;11.33;;;10.27;;
17482;SDS011;8858;52.308;20.994;2022-09-29T04:10:57;11.37;;;10.37;;
17482;SDS011;8858;52.308;20.994;2022-09-29T04:13:27;11.63;;;10.53;;
17482;SDS011;8858;52.308;20.994;2022-09-29T04:15:56;11.60;;;10.40;;
17482;SDS011;8858;52.308;20.994;2022-09-29T04:18:28;10.77;;;9.77;;
17482;SDS011;8858;52.308;20.994;2022-09-29T04:21:03;12.33;;;11.23;;
17482;SDS011;8858;52.308;20.994;2022-09-29T04:23:35;11.50;;;10.40;;
17482;SDS011;8858;52.308;20.994;2022-09-29T04:26:03;12.77;;;11.03;;
17482;SDS011;8858;52.308;20.994;2022-09-29T04:28:36;11.70;;;10.70;;
17482;SDS011;8858;52.308;20.994;2022-09-29T04:31:05;12.27;;;11.00;;
17482;SDS011;8858;52.308;20.994;2022-09-29T04:33:36;11.73;;;10.57;;
17482;SDS011;8858;52.308;20.994;2022-09-29T04:36:04;12.50;;;11.30;;
17482;SDS011;8858;52.308;20.994;2022-09-29T04:38:33;12.50;;;11.20;;
17482;SDS011;8858;52.308;20.994;2022-09-29T04:41:01;12.30;;;11.10;;
17482;SDS011;8858;52.308;20.994;2022-09-29T04:43:31;12.20;;;11.00;;
17482;SDS011;8858;52.308;20.994;2022-09-29T04:46:04;11.77;;;10.63;;
17482;SDS011;8858;52.308;20.994;2022-09-29T04:48:34;12.77;;;11.53;;
17482;SDS011;8858;52.308;20.994;2022-09-29T04:51:03;12.77;;;11.57;;
17482;SDS011;8858;52.308;20.994;2022-09-29T04:53:34;12.70;;;11.50;;
17482;SDS011;8858;52.308;20.994;2022-09-29T04:56:06;14.03;;;12.63;;
17482;SDS011;8858;52.308;20.994;2022-09-29T04:58:38;12.97;;;11.53;;
17482;SDS011;8858;52.308;20.994;2022-09-29T05:01:08;12.83;;;11.57;;
17482;SDS011;8858;52.308;20.994;2022-09-29T05:03:42;13.60;;;12.27;;
17482;SDS011;8858;52.308;20.994;2022-09-29T05:06:10;14.33;;;12.90;;
17482;SDS011;8858;52.308;20.994;2022-09-29T05:08:39;14.30;;;12.90;;
17482;SDS011;8858;52.308;20.994;2022-09-29T05:11:09;14.57;;;13.13;;
17482;SDS011;8858;52.308;20.994;2022-09-29T05:13:41;13.80;;;12.40;;
17482;SDS011;8858;52.308;20.994;2022-09-29T05:16:17;13.27;;;11.97;;
17482;SDS011;8858;52.308;20.994;2022-09-29T05:18:46;13.50;;;12.20;;
17482;SDS011;8858;52.308;20.994;2022-09-29T05:21:14;13.90;;;12.60;;
17482;SDS011;8858;52.308;20.994;2022-09-29T05:23:54;15.03;;;12.40;;
17482;SDS011;8858;52.308;20.994;2022-09-29T05:26:27;21.27;;;19.13;;
17482;SDS011;8858;52.308;20.994;2022-09-29T05:28:55;17.00;;;15.37;;
17482;SDS011;8858;52.308;20.994;2022-09-29T05:31:26;15.20;;;13.50;;
17482;SDS011;8858;52.308;20.994;2022-09-29T05:33:54;13.53;;;12.23;;
17482;SDS011;8858;52.308;20.994;2022-09-29T05:36:24;14.17;;;12.87;;
17482;SDS011;8858;52.308;20.994;2022-09-29T05:39:03;14.10;;;12.70;;
17482;SDS011;8858;52.308;20.994;2022-09-29T05:41:31;14.07;;;12.67;;
17482;SDS011;8858;52.308;20.994;2022-09-29T05:44:01;13.13;;;11.83;;
17482;SDS011;8858;52.308;20.994;2022-09-29T05:46:31;13.90;;;12.50;;
17482;SDS011;8858;52.308;20.994;2022-09-29T05:49:01;14.23;;;12.73;;
17482;SDS011;8858;52.308;20.994;2022-09-29T05:51:29;14.17;;;12.77;;
17482;SDS011;8858;52.308;20.994;2022-09-29T05:53:58;14.10;;;12.73;;
17482;SDS011;8858;52.308;20.994;2022-09-29T05:56:28;14.50;;;13.10;;
17482;SDS011;8858;52.308;20.994;2022-09-29T05:58:57;13.77;;;12.47;;
17482;SDS011;8858;52.308;20.994;2022-09-29T06:01:26;14.67;;;13.17;;
17482;SDS011;8858;52.308;20.994;2022-09-29T06:03:57;14.60;;;13.07;;
17482;SDS011;8858;52.308;20.994;2022-09-29T06:06:27;14.33;;;12.93;;
17482;SDS011;8858;52.308;20.994;2022-09-29T06:08:56;13.50;;;12.30;;
17482;SDS011;8858;52.308;20.994;2022-09-29T06:11:26;14.77;;;13.27;;
17482;SDS011;8858;52.308;20.994;2022-09-29T06:13:57;14.60;;;13.10;;
17482;SDS011;8858;52.308;20.994;2022-09-29T06:16:27;14.77;;;13.20;;
17482;SDS011;8858;52.308;20.994;2022-09-29T06:18:58;15.23;;;13.73;;
17482;SDS011;8858;52.308;20.994;2022-09-29T06:21:30;15.00;;;13.43;;
17482;SDS011;8858;52.308;20.994;2022-09-29T06:24:00;15.20;;;13.80;;
17482;SDS011;8858;52.308;20.994;2022-09-29T06:26:30;14.20;;;12.70;;
17482;SDS011;8858;52.308;20.994;2022-09-29T06:29:01;14.73;;;13.30;;
17482;SDS011;8858;52.308;20.994;2022-09-29T06:32:01;15.70;;;14.20;;
17482;SDS011;8858;52.308;20.994;2022-09-29T06:34:33;14.17;;;12.83;;
17482;SDS011;8858;52.308;20.994;2022-09-29T06:37:24;14.80;;;13.40;;
17482;SDS011;8858;52.308;20.994;2022-09-29T06:40:02;15.40;;;13.90;;
17482;SDS011;8858;52.308;20.994;2022-09-29T06:42:36;15.03;;;13.53;;
17482;SDS011;8858;52.308;20.994;2022-09-29T06:45:09;14.93;;;13.63;;
17482;SDS011;8858;52.308;20.994;2022-09-29T06:47:38;15.30;;;13.80;;
17482;SDS011;8858;52.308;20.994;2022-09-29T06:50:09;15.30;;;13.80;;
17482;SDS011;8858;52.308;20.994;2022-09-29T06:52:37;15.20;;;13.77;;
17482;SDS011;8858;52.308;20.994;2022-09-29T06:55:06;15.50;;;14.00;;
17482;SDS011;8858;52.308;20.994;2022-09-29T06:57:34;14.20;;;12.73;;
17482;SDS011;8858;52.308;20.994;2022-09-29T07:00:02;15.93;;;14.43;;
17482;SDS011;8858;52.308;20.994;2022-09-29T07:02:35;15.20;;;13.90;;
17482;SDS011;8858;52.308;20.994;2022-09-29T07:05:03;14.47;;;13.17;;
17482;SDS011;8858;52.308;20.994;2022-09-29T07:07:33;15.27;;;13.67;;
17482;SDS011;8858;52.308;20.994;2022-09-29T07:13:12;15.43;;;13.73;;
17482;SDS011;8858;52.308;20.994;2022-09-29T07:15:40;14.30;;;12.70;;
17482;SDS011;8858;52.308;20.994;2022-09-29T07:18:10;13.80;;;12.50;;
17482;SDS011;8858;52.308;20.994;2022-09-29T07:20:38;14.27;;;12.97;;
17482;SDS011;8858;52.308;20.994;2022-09-29T07:23:09;14.63;;;13.23;;
17482;SDS011;8858;52.308;20.994;2022-09-29T07:25:37;14.10;;;12.70;;
17482;SDS011;8858;52.308;20.994;2022-09-29T07:28:17;14.17;;;12.67;;
17482;SDS011;8858;52.308;20.994;2022-09-29T07:30:46;12.87;;;11.57;;
17482;SDS011;8858;52.308;20.994;2022-09-29T07:33:38;12.83;;;11.57;;
17482;SDS011;8858;52.308;20.994;2022-09-29T07:36:06;12.93;;;11.60;;
17482;SDS011;8858;52.308;20.994;2022-09-29T07:38:40;14.70;;;10.43;;
17482;SDS011;8858;52.308;20.994;2022-09-29T07:41:09;10.60;;;9.57;;
17482;SDS011;8858;52.308;20.994;2022-09-29T07:43:39;13.07;;;10.43;;
17482;SDS011;8858;52.308;20.994;2022-09-29T07:46:09;11.40;;;10.23;;
17482;SDS011;8858;52.308;20.994;2022-09-29T07:48:37;10.73;;;9.50;;
17482;SDS011;8858;52.308;20.994;2022-09-29T07:51:09;10.40;;;9.37;;
17482;SDS011;8858;52.308;20.994;2022-09-29T07:53:41;12.67;;;9.53;;
17482;SDS011;8858;52.308;20.994;2022-09-29T07:56:10;10.83;;;9.23;;
17482;SDS011;8858;52.308;20.994;2022-09-29T07:58:50;9.77;;;8.87;;
17482;SDS011;8858;52.308;20.994;2022-09-29T08:01:18;10.03;;;9.03;;
17482;SDS011;8858;52.308;20.994;2022-09-29T08:03:51;9.20;;;8.40;;
17482;SDS011;8858;52.308;20.994;2022-09-29T08:06:24;10.53;;;9.53;;
17482;SDS011;8858;52.308;20.994;2022-09-29T08:08:55;10.27;;;9.17;;
17482;SDS011;8858;52.308;20.994;2022-09-29T08:11:30;11.50;;;10.40;;
17482;SDS011;8858;52.308;20.994;2022-09-29T08:14:00;11.83;;;9.73;;
17482;SDS011;8858;52.308;20.994;2022-09-29T08:16:28;11.30;;;10.33;;
17482;SDS011;8858;52.308;20.994;2022-09-29T08:19:00;11.43;;;9.10;;
17482;SDS011;8858;52.308;20.994;2022-09-29T08:21:30;9.80;;;8.90;;
17482;SDS011;8858;52.308;20.994;2022-09-29T08:24:04;13.33;;;9.43;;
17482;SDS011;8858;52.308;20.994;2022-09-29T08:26:37;11.60;;;9.07;;
17482;SDS011;8858;52.308;20.994;2022-09-29T08:29:10;11.90;;;9.17;;
17482;SDS011;8858;52.308;20.994;2022-09-29T08:31:42;10.90;;;8.80;;
17482;SDS011;8858;52.308;20.994;2022-09-29T08:34:13;9.60;;;8.53;;
17482;SDS011;8858;52.308;20.994;2022-09-29T08:36:42;9.87;;;8.97;;
17482;SDS011;8858;52.308;20.994;2022-09-29T08:39:11;9.17;;;8.33;;
17482;SDS011;8858;52.308;20.994;2022-09-29T08:41:51;9.60;;;8.70;;
17482;SDS011;8858;52.308;20.994;2022-09-29T08:44:24;9.20;;;8.30;;
17482;SDS011;8858;52.308;20.994;2022-09-29T08:47:10;9.50;;;8.70;;
17482;SDS011;8858;52.308;20.994;2022-09-29T08:49:45;9.87;;;8.97;;
17482;SDS011;8858;52.308;20.994;2022-09-29T08:52:18;8.27;;;7.40;;
17482;SDS011;8858;52.308;20.994;2022-09-29T08:54:52;8.33;;;7.53;;
17482;SDS011;8858;52.308;20.994;2022-09-29T08:57:28;9.17;;;8.37;;
17482;SDS011;8858;52.308;20.994;2022-09-29T08:59:57;8.87;;;8.07;;
17482;SDS011;8858;52.308;20.994;2022-09-29T09:02:52;9.30;;;8.23;;
17482;SDS011;8858;52.308;20.994;2022-09-29T09:05:53;9.30;;;8.50;;
17482;SDS011;8858;52.308;20.994;2022-09-29T09:08:46;7.90;;;7.30;;
17482;SDS011;8858;52.308;20.994;2022-09-29T09:11:30;9.37;;;8.47;;
17482;SDS011;8858;52.308;20.994;2022-09-29T09:14:12;8.97;;;8.07;;
17482;SDS011;8858;52.308;20.994;2022-09-29T09:16:51;8.60;;;7.77;;
17482;SDS011;8858;52.308;20.994;2022-09-29T09:19:40;8.23;;;7.47;;
17482;SDS011;8858;52.308;20.994;2022-09-29T09:22:23;7.47;;;6.87;;
17482;SDS011;8858;52.308;20.994;2022-09-29T09:24:57;7.17;;;6.67;;
17482;SDS011;8858;52.308;20.994;2022-09-29T09:27:32;9.67;;;7.43;;
17482;SDS011;8858;52.308;20.994;2022-09-29T09:30:08;8.20;;;7.40;;
17482;SDS011;8858;52.308;20.994;2022-09-29T09:32:44;8.67;;;7.97;;
17482;SDS011;8858;52.308;20.994;2022-09-29T09:35:22;8.77;;;7.87;;
17482;SDS011;8858;52.308;20.994;2022-09-29T09:37:56;7.87;;;7.23;;
17482;SDS011;8858;52.308;20.994;2022-09-29T09:40:30;7.47;;;6.73;;
17482;SDS011;8858;52.308;20.994;2022-09-29T09:43:13;7.60;;;6.90;;
17482;SDS011;8858;52.308;20.994;2022-09-29T09:45:48;7.50;;;6.77;;
17482;SDS011;8858;52.308;20.994;2022-09-29T09:48:23;8.23;;;7.53;;
17482;SDS011;8858;52.308;20.994;2022-09-29T09:50:58;8.53;;;7.73;;
17482;SDS011;8858;52.308;20.994;2022-09-29T09:53:29;8.43;;;7.73;;
17482;SDS011;8858;52.308;20.994;2022-09-29T09:56:06;8.53;;;7.73;;
17482;SDS011;8858;52.308;20.994;2022-09-29T09:59:04;7.87;;;7.13;;
17482;SDS011;8858;52.308;20.994;2022-09-29T10:01:46;8.37;;;7.20;;
17482;SDS011;8858;52.308;20.994;2022-09-29T10:04:15;7.83;;;7.13;;
17482;SDS011;8858;52.308;20.994;2022-09-29T10:06:44;8.33;;;7.63;;
17482;SDS011;8858;52.308;20.994;2022-09-29T10:09:18;8.40;;;7.60;;
17482;SDS011;8858;52.308;20.994;2022-09-29T10:12:13;8.40;;;7.70;;
17482;SDS011;8858;52.308;20.994;2022-09-29T10:14:48;8.93;;;8.13;;
17482;SDS011;8858;52.308;20.994;2022-09-29T10:17:24;9.13;;;8.33;;
17482;SDS011;8858;52.308;20.994;2022-09-29T10:19:59;8.33;;;7.53;;
17482;SDS011;8858;52.308;20.994;2022-09-29T10:22:36;10.03;;;9.13;;
17482;SDS011;8858;52.308;20.994;2022-09-29T10:25:11;9.83;;;9.03;;
17482;SDS011;8858;52.308;20.994;2022-09-29T10:27:46;10.37;;;9.37;;
17482;SDS011;8858;52.308;20.994;2022-09-29T10:30:32;17.00;;;9.80;;
17482;SDS011;8858;52.308;20.994;2022-09-29T10:33:35;11.80;;;9.10;;
17482;SDS011;8858;52.308;20.994;2022-09-29T10:36:12;10.07;;;9.17;;
17482;SDS011;8858;52.308;20.994;2022-09-29T10:38:45;10.83;;;9.83;;
17482;SDS011;8858;52.308;20.994;2022-09-29T10:41:48;10.60;;;9.70;;
17482;SDS011;8858;52.308;20.994;2022-09-29T10:44:23;10.17;;;9.33;;
17482;SDS011;8858;52.308;20.994;2022-09-29T10:47:10;9.90;;;9.10;;
17482;SDS011;8858;52.308;20.994;2022-09-29T10:49:44;10.07;;;9.30;;
17482;SDS011;8858;52.308;20.994;2022-09-29T10:52:19;10.00;;;9.10;;
17482;SDS011;8858;52.308;20.994;2022-09-29T10:54:53;10.10;;;9.17;;
17482;SDS011;8858;52.308;20.994;2022-09-29T10:57:25;10.90;;;9.80;;
17482;SDS011;8858;52.308;20.994;2022-09-29T10:59:58;10.57;;;9.50;;
17482;SDS011;8858;52.308;20.994;2022-09-29T11:02:30;9.67;;;8.90;;
17482;SDS011;8858;52.308;20.994;2022-09-29T11:05:03;11.23;;;9.97;;
17482;SDS011;8858;52.308;20.994;2022-09-29T11:07:43;10.83;;;9.83;;
17482;SDS011;8858;52.308;20.994;2022-09-29T11:10:26;11.07;;;9.97;;
17482;SDS011;8858;52.308;20.994;2022-09-29T11:12:56;10.57;;;9.60;;
17482;SDS011;8858;52.308;20.994;2022-09-29T11:15:27;10.47;;;9.47;;
17482;SDS011;8858;52.308;20.994;2022-09-29T11:18:56;9.17;;;8.37;;
17482;SDS011;8858;52.308;20.994;2022-09-29T11:21:47;9.37;;;8.57;;
17482;SDS011;8858;52.308;20.994;2022-09-29T11:24:49;9.67;;;8.87;;
17482;SDS011;8858;52.308;20.994;2022-09-29T11:27:39;9.90;;;9.00;;
17482;SDS011;8858;52.308;20.994;2022-09-29T11:31:15;10.03;;;9.03;;
17482;SDS011;8858;52.308;20.994;2022-09-29T11:34:10;10.10;;;9.10;;
17482;SDS011;8858;52.308;20.994;2022-09-29T11:36:59;10.27;;;9.27;;
17482;SDS011;8858;52.308;20.994;2022-09-29T11:39:38;9.77;;;8.97;;
17482;SDS011;8858;52.308;20.994;2022-09-29T11:42:17;9.27;;;8.37;;
17482;SDS011;8858;52.308;20.994;2022-09-29T11:45:02;9.07;;;8.30;;
17482;SDS011;8858;52.308;20.994;2022-09-29T11:47:48;8.30;;;7.60;;
17482;SDS011;8858;52.308;20.994;2022-09-29T11:50:33;9.77;;;8.77;;
17482;SDS011;8858;52.308;20.994;2022-09-29T11:53:25;8.87;;;8.17;;
17482;SDS011;8858;52.308;20.994;2022-09-29T11:56:10;8.33;;;7.63;;
17482;SDS011;8858;52.308;20.994;2022-09-29T11:58:54;8.80;;;8.10;;
17482;SDS011;8858;52.308;20.994;2022-09-29T12:01:38;8.70;;;8.00;;
17482;SDS011;8858;52.308;20.994;2022-09-29T12:04:22;8.23;;;7.57;;
17482;SDS011;8858;52.308;20.994;2022-09-29T12:07:05;8.97;;;7.47;;
17482;SDS011;8858;52.308;20.994;2022-09-29T12:09:53;8.77;;;8.07;;
17482;SDS011;8858;52.308;20.994;2022-09-29T12:12:33;7.97;;;7.37;;
17482;SDS011;8858;52.308;20.994;2022-09-29T12:15:12;7.60;;;7.00;;
17482;SDS011;8858;52.308;20.994;2022-09-29T12:17:59;8.07;;;7.37;;
17482;SDS011;8858;52.308;20.994;2022-09-29T12:20:32;7.50;;;6.90;;
17482;SDS011;8858;52.308;20.994;2022-09-29T12:23:09;7.87;;;7.20;;
17482;SDS011;8858;52.308;20.994;2022-09-29T12:25:51;8.07;;;7.37;;
17482;SDS011;8858;52.308;20.994;2022-09-29T12:28:25;8.40;;;7.63;;
17482;SDS011;8858;52.308;20.994;2022-09-29T12:31:02;7.60;;;6.97;;
17482;SDS011;8858;52.308;20.994;2022-09-29T12:33:36;7.37;;;6.87;;
17482;SDS011;8858;52.308;20.994;2022-09-29T12:36:15;7.17;;;6.57;;
17482;SDS011;8858;52.308;20.994;2022-09-29T12:39:19;8.30;;;7.70;;
17482;SDS011;8858;52.308;20.994;2022-09-29T12:42:02;8.43;;;7.73;;
17482;SDS011;8858;52.308;20.994;2022-09-29T12:44:43;8.70;;;7.80;;
17482;SDS011;8858;52.308;20.994;2022-09-29T12:47:19;8.20;;;7.60;;
17482;SDS011;8858;52.308;20.994;2022-09-29T12:49:58;8.57;;;7.80;;
17482;SDS011;8858;52.308;20.994;2022-09-29T12:52:36;8.27;;;7.47;;
17482;SDS011;8858;52.308;20.994;2022-09-29T12:55:13;7.77;;;7.17;;
17482;SDS011;8858;52.308;20.994;2022-09-29T12:57:46;7.50;;;6.90;;
17482;SDS011;8858;52.308;20.994;2022-09-29T13:00:20;7.40;;;6.80;;
17482;SDS011;8858;52.308;20.994;2022-09-29T13:02:59;8.23;;;7.63;;
17482;SDS011;8858;52.308;20.994;2022-09-29T13:06:13;8.77;;;8.10;;
17482;SDS011;8858;52.308;20.994;2022-09-29T13:09:04;7.60;;;7.00;;
17482;SDS011;8858;52.308;20.994;2022-09-29T13:12:00;8.23;;;7.53;;
17482;SDS011;8858;52.308;20.994;2022-09-29T13:14:50;8.20;;;7.50;;
17482;SDS011;8858;52.308;20.994;2022-09-29T13:17:48;7.00;;;6.50;;
17482;SDS011;8858;52.308;20.994;2022-09-29T13:20:40;6.93;;;6.43;;
17482;SDS011;8858;52.308;20.994;2022-09-29T13:23:38;6.87;;;6.27;;
17482;SDS011;8858;52.308;20.994;2022-09-29T13:29:18;8.20;;;7.20;;
17482;SDS011;8858;52.308;20.994;2022-09-29T13:31:49;9.30;;;7.00;;
17482;SDS011;8858;52.308;20.994;2022-09-29T13:34:33;9.40;;;6.87;;
17482;SDS011;8858;52.308;20.994;2022-09-29T13:37:06;13.73;;;7.67;;
17482;SDS011;8858;52.308;20.994;2022-09-29T13:39:40;11.10;;;7.03;;
17482;SDS011;8858;52.308;20.994;2022-09-29T13:42:25;8.17;;;7.40;;
17482;SDS011;8858;52.308;20.994;2022-09-29T13:54:12;7.50;;;6.90;;
17482;SDS011;8858;52.308;20.994;2022-09-29T13:57:16;7.87;;;6.43;;
17482;SDS011;8858;52.308;20.994;2022-09-29T14:03:03;7.90;;;7.30;;
17482;SDS011;8858;52.308;20.994;2022-09-29T14:05:52;7.17;;;6.67;;
17482;SDS011;8858;52.308;20.994;2022-09-29T14:12:52;9.03;;;8.33;;
17482;SDS011;8858;52.308;20.994;2022-09-29T14:15:24;10.13;;;7.53;;
17482;SDS011;8858;52.308;20.994;2022-09-29T14:17:54;8.23;;;7.47;;
17482;SDS011;8858;52.308;20.994;2022-09-29T14:20:31;8.97;;;7.57;;
17482;SDS011;8858;52.308;20.994;2022-09-29T14:23:00;8.77;;;7.97;;
17482;SDS011;8858;52.308;20.994;2022-09-29T14:28:22;8.23;;;7.53;;
17482;SDS011;8858;52.308;20.994;2022-09-29T14:30:58;7.70;;;7.10;;
17482;SDS011;8858;52.308;20.994;2022-09-29T14:33:35;7.80;;;7.17;;
17482;SDS011;8858;52.308;20.994;2022-09-29T14:36:15;7.43;;;6.73;;
17482;SDS011;8858;52.308;20.994;2022-09-29T14:38:46;8.53;;;7.80;;
17482;SDS011;8858;52.308;20.994;2022-09-29T14:41:38;6.80;;;6.30;;
17482;SDS011;8858;52.308;20.994;2022-09-29T14:44:11;7.47;;;6.73;;
17482;SDS011;8858;52.308;20.994;2022-09-29T14:47:09;8.43;;;7.73;;
17482;SDS011;8858;52.308;20.994;2022-09-29T14:50:16;7.60;;;7.00;;
17482;SDS011;8858;52.308;20.994;2022-09-29T14:53:36;7.77;;;7.10;;
17482;SDS011;8858;52.308;20.994;2022-09-29T14:56:26;7.63;;;7.00;;
17482;SDS011;8858;52.308;20.994;2022-09-29T14:59:18;7.47;;;6.90;;
17482;SDS011;8858;52.308;20.994;2022-09-29T15:02:01;7.80;;;7.20;;
17482;SDS011;8858;52.308;20.994;2022-09-29T15:04:44;7.77;;;7.13;;
17482;SDS011;8858;52.308;20.994;2022-09-29T15:07:18;7.37;;;6.77;;
17482;SDS011;8858;52.308;20.994;2022-09-29T15:09:51;7.93;;;7.33;;
17482;SDS011;8858;52.308;20.994;2022-09-29T15:12:21;8.23;;;7.53;;
17482;SDS011;8858;52.308;20.994;2022-09-29T15:14:53;8.10;;;7.30;;
17482;SDS011;8858;52.308;20.994;2022-09-29T15:17:30;8.60;;;7.67;;
17482;SDS011;8858;52.308;20.994;2022-09-29T15:20:11;8.37;;;7.57;;
17482;SDS011;8858;52.308;20.994;2022-09-29T15:22:57;8.47;;;7.77;;
17482;SDS011;8858;52.308;20.994;2022-09-29T15:25:38;8.37;;;7.47;;
17482;SDS011;8858;52.308;20.994;2022-09-29T15:28:11;7.23;;;6.53;;
17482;SDS011;8858;52.308;20.994;2022-09-29T15:30:45;7.27;;;6.57;;
17482;SDS011;8858;52.308;20.994;2022-09-29T15:33:20;7.77;;;7.07;;
17482;SDS011;8858;52.308;20.994;2022-09-29T15:36:32;8.13;;;7.20;;
17482;SDS011;8858;52.308;20.994;2022-09-29T15:39:04;7.67;;;6.97;;
17482;SDS011;8858;52.308;20.994;2022-09-29T15:41:35;7.70;;;7.10;;
17482;SDS011;8858;52.308;20.994;2022-09-29T15:44:10;7.87;;;7.17;;
17482;SDS011;8858;52.308;20.994;2022-09-29T15:46:56;8.43;;;7.73;;
17482;SDS011;8858;52.308;20.994;2022-09-29T15:49:29;9.60;;;7.30;;
17482;SDS011;8858;52.308;20.994;2022-09-29T15:52:02;8.53;;;7.57;;
17482;SDS011;8858;52.308;20.994;2022-09-29T15:54:35;8.40;;;7.60;;
17482;SDS011;8858;52.308;20.994;2022-09-29T15:57:23;8.77;;;7.93;;
17482;SDS011;8858;52.308;20.994;2022-09-29T16:03:15;7.83;;;7.23;;
17482;SDS011;8858;52.308;20.994;2022-09-29T16:05:58;9.17;;;8.37;;
17482;SDS011;8858;52.308;20.994;2022-09-29T16:08:33;8.97;;;8.17;;
17482;SDS011;8858;52.308;20.994;2022-09-29T16:11:07;8.30;;;7.63;;
17482;SDS011;8858;52.308;20.994;2022-09-29T16:13:47;10.40;;;7.93;;
17482;SDS011;8858;52.308;20.994;2022-09-29T16:16:24;13.70;;;9.07;;
17482;SDS011;8858;52.308;20.994;2022-09-29T16:18:57;25.30;;;20.17;;
17482;SDS011;8858;52.308;20.994;2022-09-29T16:21:32;15.07;;;13.37;;
17482;SDS011;8858;52.308;20.994;2022-09-29T16:24:04;12.33;;;11.07;;
17482;SDS011;8858;52.308;20.994;2022-09-29T16:26:38;11.33;;;10.23;;
17482;SDS011;8858;52.308;20.994;2022-09-29T16:32:01;9.43;;;8.27;;
17482;SDS011;8858;52.308;20.994;2022-09-29T16:38:18;11.20;;;9.07;;
17482;SDS011;8858;52.308;20.994;2022-09-29T16:40:51;11.27;;;10.07;;